Time;durP1;ratioP1;P1;durP2;ratioP2;P2;SDS_P1;SDS_P2;PMS_P1;PMS_P2;Temp;Humidity;BMP_temperature;BMP_pressure;BME280_temperature;BME280_humidity;BME280_pressure;Samples;Min_cycle;Max_cycle;Signal;HPM_P1;HPM_P2
2022/10/17 00:02:02;;;;;;;7.60;6.70;;;;;;;10.54;75.64;96152.34;5113251;28;20934;-77
2022/10/17 00:04:28;;;;;;;12.40;6.33;;;;;;;10.54;75.27;96143.63;5112960;28;20477;-77
2022/10/17 00:06:56;;;;;;;7.23;5.47;;;;;;;10.53;75.05;96147.22;5112954;28;20440;-77
2022/10/17 00:09:23;;;;;;;10.10;5.43;;;;;;;10.57;75.44;96151.31;5112655;28;20453;-77
2022/10/17 00:11:50;;;;;;;6.23;5.50;;;;;;;10.60;75.34;96152.88;5112512;28;20479;-77
2022/10/17 00:14:17;;;;;;;7.40;5.50;;;;;;;10.59;75.62;96151.22;5112876;28;20870;-77
2022/10/17 00:16:44;;;;;;;7.07;6.37;;;;;;;10.60;75.38;96150.25;5112613;28;20472;-77
2022/10/17 00:19:10;;;;;;;7.83;5.63;;;;;;;10.65;74.99;96156.06;5112669;28;20443;-77
2022/10/17 00:21:37;;;;;;;10.50;6.23;;;;;;;10.68;74.81;96147.97;5112248;28;20502;-77
2022/10/17 00:24:06;;;;;;;6.40;5.63;;;;;;;10.67;75.45;96149.75;5112360;28;20448;-77
2022/10/17 00:26:33;;;;;;;7.10;6.07;;;;;;;10.67;75.58;96146.28;5076853;28;20437;-77
2022/10/17 00:29:00;;;;;;;7.90;6.20;;;;;;;10.69;75.28;96152.28;5112190;28;20447;-76
2022/10/17 00:31:27;;;;;;;7.57;6.00;;;;;;;10.75;75.51;96154.53;5101410;28;20507;-77
2022/10/17 00:33:53;;;;;;;8.77;5.90;;;;;;;10.76;75.31;96156.22;5092035;28;20481;-76
2022/10/17 00:36:22;;;;;;;6.93;6.23;;;;;;;10.78;75.32;96157.81;5091791;28;20540;-77
2022/10/17 00:38:52;;;;;;;6.87;6.23;;;;;;;10.80;75.87;96157.69;5091980;28;20464;-76
2022/10/17 00:41:23;;;;;;;7.53;6.40;;;;;;;10.83;75.72;96163.59;5091841;28;20453;-77
2022/10/17 00:43:57;;;;;;;7.97;6.43;;;;;;;10.80;76.40;96163.78;5092043;28;20848;-77
2022/10/17 00:46:26;;;;;;;8.27;6.67;;;;;;;10.82;75.54;96166.31;5092275;28;20438;-77
2022/10/17 00:48:55;;;;;;;8.53;6.87;;;;;;;10.84;75.83;96165.28;5094621;28;20449;-76
2022/10/17 00:51:28;;;;;;;6.73;5.97;;;;;;;10.84;74.97;96169.69;5095618;28;20448;-77
2022/10/17 00:53:56;;;;;;;6.83;6.13;;;;;;;10.85;75.15;96166.94;5096112;28;21020;-76
2022/10/17 00:56:24;;;;;;;6.30;5.70;;;;;;;10.89;75.21;96172.84;5095907;28;20441;-76
2022/10/17 00:58:51;;;;;;;7.50;6.80;;;;;;;10.88;74.97;96168.53;5095849;28;20458;-77
2022/10/17 01:01:18;;;;;;;8.23;6.70;;;;;;;10.83;75.48;96163.59;5096014;28;20461;-77
2022/10/17 01:03:45;;;;;;;8.20;6.97;;;;;;;10.79;75.11;96172.59;5059745;28;20438;-77
2022/10/17 01:06:11;;;;;;;8.80;6.27;;;;;;;10.71;74.35;96169.66;5095538;28;20443;-77
2022/10/17 01:08:39;;;;;;;9.43;6.40;;;;;;;10.67;75.54;96162.88;5095683;28;20448;-76
2022/10/17 01:11:19;;;;;;;10.47;6.57;;;;;;;10.59;74.29;96154.69;5095259;28;20452;-77
2022/10/17 01:13:52;;;;;;;6.27;5.60;;;;;;;10.57;74.86;96166.22;5095307;28;20481;-77
2022/10/17 01:16:26;;;;;;;10.33;8.07;;;;;;;10.50;74.85;96161.38;5095371;28;20464;-77
2022/10/17 01:19:02;;;;;;;9.37;7.20;;;;;;;10.43;74.87;96159.25;5095361;28;20447;-77
2022/10/17 01:21:41;;;;;;;8.87;7.20;;;;;;;10.31;75.73;96158.22;5095261;28;20856;-77
2022/10/17 01:24:42;;;;;;;7.53;6.77;;;;;;;10.24;75.85;96162.19;5095274;28;20804;-76
2022/10/17 01:27:37;;;;;;;11.37;7.00;;;;;;;10.16;76.24;96156.56;5095127;28;20922;-77
2022/10/17 01:30:26;;;;;;;8.40;6.80;;;;;;;10.13;76.71;96162.84;5012930;28;20460;-77
2022/10/17 01:32:58;;;;;;;8.03;7.23;;;;;;;10.10;76.74;96156.91;5013132;28;20491;-76
2022/10/17 01:35:31;;;;;;;7.93;6.53;;;;;;;10.09;76.82;96168.34;5012757;28;20466;-77
2022/10/17 01:38:07;;;;;;;14.33;7.60;;;;;;;10.11;76.75;96166.47;4979879;28;20436;-76
2022/10/17 01:40:39;;;;;;;9.73;7.60;;;;;;;10.12;77.05;96165.53;5012667;28;20444;-77
2022/10/17 01:43:11;;;;;;;10.70;6.90;;;;;;;10.14;77.19;96161.06;5012523;28;20940;-77
2022/10/17 01:45:42;;;;;;;9.43;7.30;;;;;;;10.16;76.85;96177.53;5012565;28;20823;-76
2022/10/17 01:48:16;;;;;;;11.80;6.50;;;;;;;10.12;77.24;96173.41;5012615;28;20552;-77
2022/10/17 01:50:46;;;;;;;10.73;7.27;;;;;;;10.14;77.42;96175.00;5012536;28;20523;-77
2022/10/17 01:53:19;;;;;;;8.60;6.73;;;;;;;10.15;76.74;96175.84;5012256;28;20838;-76
2022/10/17 01:55:49;;;;;;;8.30;6.30;;;;;;;10.15;77.32;96176.69;5012540;28;20441;-77
2022/10/17 01:58:21;;;;;;;7.57;6.50;;;;;;;10.19;76.73;96187.84;5012342;28;20445;-76
2022/10/17 02:00:50;;;;;;;8.20;6.90;;;;;;;10.18;77.07;96183.53;5011502;28;20441;-77
2022/10/17 02:03:21;;;;;;;7.77;6.30;;;;;;;10.14;77.08;96189.91;5012629;28;20439;-77
2022/10/17 02:05:48;;;;;;;7.80;6.97;;;;;;;10.13;77.18;96194.31;5012856;28;20499;-76
2022/10/17 02:08:25;;;;;;;7.77;6.47;;;;;;;10.14;77.55;96189.91;5051918;28;20939;-77
2022/10/17 02:10:57;;;;;;;9.07;7.47;;;;;;;10.12;76.82;96184.75;5053948;28;20445;-78
2022/10/17 02:13:35;;;;;;;9.60;6.63;;;;;;;10.11;77.31;96184.81;5054334;28;21001;-77
2022/10/17 02:16:29;;;;;;;8.50;7.60;;;;;;;10.12;77.76;96183.88;5054121;28;20449;-76
2022/10/17 02:19:20;;;;;;;7.37;6.63;;;;;;;10.07;77.35;96188.56;5053914;28;20971;-77
2022/10/17 02:21:57;;;;;;;10.70;7.73;;;;;;;9.98;77.93;96187.38;5054298;28;20451;-76
2022/10/17 02:24:33;;;;;;;9.77;7.70;;;;;;;9.91;78.74;96192.16;5054216;28;20451;-77
2022/10/17 02:27:06;;;;;;;8.63;7.07;;;;;;;9.90;78.59;96185.22;5053953;28;20529;-77
2022/10/17 02:29:37;;;;;;;8.33;7.50;;;;;;;9.92;78.88;96199.09;5054243;28;20512;-76
2022/10/17 02:32:08;;;;;;;7.20;6.40;;;;;;;9.93;78.41;96190.28;5066796;28;20441;-77
2022/10/17 02:34:41;;;;;;;8.17;6.57;;;;;;;9.92;79.62;96193.84;5073751;28;20501;-77
2022/10/17 02:37:11;;;;;;;7.93;7.13;;;;;;;9.94;79.23;96199.00;5073611;28;20851;-77
2022/10/17 02:39:40;;;;;;;8.70;7.30;;;;;;;9.92;78.65;96196.47;5073646;28;20447;-77
2022/10/17 02:42:10;;;;;;;9.33;7.07;;;;;;;9.93;78.92;96203.41;5073736;28;20976;-77
2022/10/17 02:44:38;;;;;;;8.10;7.30;;;;;;;9.87;79.57;96198.53;5073601;28;20453;-77
2022/10/17 02:47:11;;;;;;;8.43;7.07;;;;;;;9.86;79.71;96198.63;5073377;28;20847;-77
2022/10/17 02:49:44;;;;;;;10.07;7.93;;;;;;;9.81;79.32;96206.75;5073232;28;20437;-76
2022/10/17 02:52:16;;;;;;;10.10;7.60;;;;;;;9.80;79.10;96207.69;5079758;28;20473;-77
2022/10/17 02:54:48;;;;;;;9.50;7.43;;;;;;;9.81;79.83;96205.91;5058877;28;20493;-76
2022/10/17 02:57:22;;;;;;;10.07;7.50;;;;;;;9.78;79.65;96213.97;5093727;28;20456;-76
2022/10/17 02:59:50;;;;;;;9.87;8.30;;;;;;;9.77;79.80;96215.72;5059060;28;20873;-77
2022/10/17 03:02:17;;;;;;;8.10;7.03;;;;;;;9.72;80.22;96222.19;5093450;28;20441;-77
2022/10/17 03:04:46;;;;;;;10.77;7.93;;;;;;;9.75;79.72;96228.09;5093041;28;20863;-77
2022/10/17 03:07:13;;;;;;;9.03;7.53;;;;;;;9.71;80.25;96231.00;5093879;28;20440;-77
2022/10/17 03:09:40;;;;;;;11.30;8.53;;;;;;;9.71;80.04;96231.00;5093489;28;20497;-76
2022/10/17 03:12:07;;;;;;;8.83;7.93;;;;;;;9.63;79.20;96231.47;5092772;28;20450;-77
2022/10/17 03:14:34;;;;;;;10.30;8.97;;;;;;;9.47;79.88;96231.50;5093273;28;20486;-77
2022/10/17 03:17:00;;;;;;;12.20;8.90;;;;;;;9.37;79.86;96227.75;5093013;28;20850;-76
2022/10/17 03:19:27;;;;;;;11.40;8.40;;;;;;;9.37;79.76;96232.16;5093138;28;20444;-76
2022/10/17 03:21:55;;;;;;;14.20;8.93;;;;;;;9.32;79.40;96227.19;5057266;28;20440;-76
2022/10/17 03:24:22;;;;;;;17.80;9.10;;;;;;;9.28;79.09;96230.94;5092819;28;20954;-76
2022/10/17 03:26:49;;;;;;;11.07;8.20;;;;;;;9.16;78.51;96232.47;5092856;28;20948;-77
2022/10/17 03:29:15;;;;;;;14.00;9.27;;;;;;;9.08;79.12;96225.97;5092751;28;20521;-77
2022/10/17 03:31:42;;;;;;;14.70;9.80;;;;;;;8.99;79.08;96235.22;5092725;28;20508;-77
2022/10/17 03:34:09;;;;;;;24.80;14.00;;;;;;;8.72;80.69;96236.78;5092689;28;20540;-77
2022/10/17 03:36:36;;;;;;;19.20;13.47;;;;;;;8.54;81.86;96236.84;5092593;28;20440;-77
2022/10/17 03:39:04;;;;;;;16.97;11.97;;;;;;;8.48;81.94;96238.97;5092517;28;20452;-76
2022/10/17 03:41:31;;;;;;;15.50;10.97;;;;;;;8.46;81.98;96241.66;5056885;28;20436;-77
2022/10/17 03:44:00;;;;;;;18.60;13.20;;;;;;;8.47;81.59;96243.34;5093053;28;20501;-77
2022/10/17 03:46:27;;;;;;;18.73;13.53;;;;;;;8.45;81.46;96239.97;5073983;28;20459;-76
2022/10/17 03:48:54;;;;;;;16.90;13.17;;;;;;;8.48;81.17;96239.81;5092542;28;20507;-76
2022/10/17 03:51:21;;;;;;;20.20;12.17;;;;;;;8.52;81.04;96240.47;5092417;28;20877;-76
2022/10/17 03:53:48;;;;;;;15.53;11.40;;;;;;;8.58;80.84;96243.59;5092277;28;20482;-77
2022/10/17 03:56:18;;;;;;;17.20;11.50;;;;;;;8.62;80.76;96247.72;5092221;28;20440;-77
2022/10/17 03:58:45;;;;;;;19.13;11.50;;;;;;;8.62;81.14;96244.28;5092632;28;20459;-77
2022/10/17 04:01:17;;;;;;;14.90;11.87;;;;;;;8.61;81.45;96243.44;5092712;28;20502;-76
2022/10/17 04:03:50;;;;;;;13.83;11.63;;;;;;;8.64;81.92;96242.41;5092967;28;21377;-76
2022/10/17 04:06:19;;;;;;;25.30;13.50;;;;;;;8.70;81.76;96249.94;5057074;28;20519;-76
2022/10/17 04:08:54;;;;;;;22.30;12.67;;;;;;;8.68;81.20;96233.50;5092818;28;20439;-76
2022/10/17 04:11:22;;;;;;;29.13;13.27;;;;;;;8.74;80.10;96248.00;5092891;28;20996;-76
2022/10/17 04:13:53;;;;;;;15.77;11.90;;;;;;;8.73;80.66;96249.78;5040740;28;20502;-77
2022/10/17 04:16:21;;;;;;;17.17;12.70;;;;;;;8.68;80.26;96255.25;5092112;28;20962;-77
2022/10/17 04:18:52;;;;;;;17.20;13.00;;;;;;;8.64;79.93;96263.34;5073671;28;20448;-76
2022/10/17 04:21:19;;;;;;;21.07;15.30;;;;;;;8.59;80.34;96258.38;5092539;28;21220;-77
2022/10/17 04:23:47;;;;;;;18.37;12.83;;;;;;;8.60;80.27;96260.06;5091957;28;20782;-77
2022/10/17 04:26:14;;;;;;;23.67;14.57;;;;;;;8.49;80.09;96262.44;5100353;28;21087;-77
2022/10/17 04:28:42;;;;;;;24.20;14.37;;;;;;;8.44;79.95;96259.22;5113090;28;20447;-77
2022/10/17 04:31:12;;;;;;;14.37;12.73;;;;;;;8.43;80.26;96262.75;5113027;28;20451;-77
2022/10/17 04:33:40;;;;;;;18.27;13.67;;;;;;;8.43;80.18;96264.53;5112927;28;20497;-76
2022/10/17 04:36:10;;;;;;;22.80;14.63;;;;;;;8.46;81.04;96257.38;5112544;28;20455;-77
2022/10/17 04:38:38;;;;;;;269.43;109.43;;;;;;;8.48;80.86;96268.59;5112647;28;20791;-77
2022/10/17 04:41:06;;;;;;;128.77;62.93;;;;;;;8.31;80.29;96261.59;5112504;28;20441;-78
2022/10/17 04:43:35;;;;;;;125.97;58.20;;;;;;;8.27;80.43;96272.31;5060763;28;20454;-77
2022/10/17 04:46:05;;;;;;;54.40;30.47;;;;;;;8.15;80.69;96270.38;5112976;28;20447;-78
2022/10/17 04:48:32;;;;;;;40.07;25.40;;;;;;;7.97;81.67;96273.03;5112987;28;20445;-78
2022/10/17 04:51:01;;;;;;;33.13;18.60;;;;;;;7.88;82.15;96273.50;5112647;28;20446;-77
2022/10/17 04:53:28;;;;;;;54.47;25.93;;;;;;;7.69;83.44;96271.00;5112591;28;20474;-76
2022/10/17 04:55:55;;;;;;;72.23;46.30;;;;;;;7.69;83.36;96285.81;5112743;28;20918;-77
2022/10/17 04:58:23;;;;;;;37.70;17.90;;;;;;;7.72;84.03;96280.44;5112710;28;20453;-76
2022/10/17 05:00:50;;;;;;;136.80;68.17;;;;;;;7.63;84.04;96286.97;5112472;28;20508;-76
2022/10/17 05:03:18;;;;;;;63.70;32.77;;;;;;;7.70;83.88;96284.91;5112544;28;20499;-76
2022/10/17 05:05:46;;;;;;;55.33;24.60;;;;;;;8.59;100.00;96281.91;5112503;28;20449;-77
2022/10/17 05:08:13;;;;;;;37.80;20.87;;;;;;;8.63;93.44;96290.44;5112721;28;20493;-76
2022/10/17 05:10:42;;;;;;;30.60;17.00;;;;;;;9.15;85.67;96300.63;5057991;28;20455;-77
2022/10/17 05:13:09;;;;;;;33.00;19.80;;;;;;;10.09;80.42;96310.81;5108488;28;20444;-77
2022/10/17 05:15:37;;;;;;;32.20;20.63;;;;;;;11.24;73.69;96314.19;5112071;28;20480;-77
2022/10/17 05:18:04;;;;;;;31.83;17.40;;;;;;;12.34;69.38;96315.56;5111910;28;20453;-77
2022/10/17 05:20:33;;;;;;;39.17;19.67;;;;;;;13.13;65.10;96304.69;5112043;28;20434;-76
2022/10/17 05:23:00;;;;;;;32.83;15.73;;;;;;;13.96;62.19;96307.34;5112240;28;20454;-77
2022/10/17 05:25:27;;;;;;;27.70;16.70;;;;;;;14.68;58.81;96310.59;5111775;28;20500;-76
2022/10/17 05:27:54;;;;;;;30.90;14.63;;;;;;;15.37;57.96;96305.09;5111834;28;20450;-77
2022/10/17 05:30:21;;;;;;;15.80;11.30;;;;;;;15.92;56.16;96309.38;5111508;28;20471;-78
2022/10/17 05:32:48;;;;;;;24.63;13.60;;;;;;;16.49;54.86;96317.84;5111794;28;20835;-77
2022/10/17 05:35:15;;;;;;;24.13;13.73;;;;;;;16.92;53.42;96310.50;5113322;28;20503;-76
2022/10/17 05:37:43;;;;;;;15.17;11.40;;;;;;;17.39;52.01;96315.25;5101157;28;20455;-78
2022/10/17 05:40:11;;;;;;;22.53;12.87;;;;;;;17.60;50.95;96316.81;5115649;28;20450;-77
2022/10/17 05:42:37;;;;;;;17.20;13.90;;;;;;;17.72;51.63;96309.59;5115585;28;20446;-77
2022/10/17 05:45:05;;;;;;;20.17;12.27;;;;;;;17.76;50.24;96311.00;5100868;28;20444;-78
2022/10/17 05:47:32;;;;;;;18.90;12.07;;;;;;;17.41;50.49;96310.66;5113428;28;20447;-77
2022/10/17 05:49:59;;;;;;;17.63;12.37;;;;;;;17.38;51.79;96306.47;5115223;28;20766;-77
2022/10/17 05:52:25;;;;;;;20.00;12.83;;;;;;;17.29;51.56;96315.22;5115020;28;20474;-77
2022/10/17 05:54:53;;;;;;;72.83;45.33;;;;;;;16.53;52.95;96308.66;5101207;28;20481;-77
2022/10/17 05:57:20;;;;;;;40.73;26.97;;;;;;;15.70;55.38;96314.75;5058884;28;20795;-77
2022/10/17 05:59:47;;;;;;;22.40;17.50;;;;;;;15.37;56.83;96328.91;5094535;28;20457;-77
2022/10/17 06:02:14;;;;;;;22.00;16.57;;;;;;;15.11;58.34;96326.56;5094794;28;20516;-77
2022/10/17 06:04:44;;;;;;;20.77;16.57;;;;;;;15.02;59.76;96326.44;5094846;28;20451;-76
2022/10/17 06:07:11;;;;;;;19.17;14.60;;;;;;;15.16;59.99;96334.13;5094655;28;20449;-77
2022/10/17 06:09:38;;;;;;;19.40;14.40;;;;;;;15.17;59.89;96330.50;5094645;28;20445;-76
2022/10/17 06:12:07;;;;;;;18.87;12.57;;;;;;;15.04;59.68;96332.47;5094616;28;20458;-76
2022/10/17 06:14:33;;;;;;;21.73;14.23;;;;;;;15.06;60.42;96330.53;5094315;28;20545;-77
2022/10/17 06:17:01;;;;;;;21.93;14.90;;;;;;;15.20;60.65;96343.47;5094128;28;20447;-76
2022/10/17 06:19:27;;;;;;;18.43;11.77;;;;;;;14.55;61.50;96347.72;5094034;28;20825;-76
2022/10/17 06:21:54;;;;;;;15.23;12.40;;;;;;;14.68;61.82;96357.31;5094168;28;20452;-76
2022/10/17 06:24:21;;;;;;;18.67;13.47;;;;;;;14.66;61.43;96352.16;5094724;28;20987;-76
2022/10/17 06:26:48;;;;;;;14.30;11.87;;;;;;;14.44;61.79;96354.75;5094348;28;20572;-77
2022/10/17 06:29:22;;;;;;;15.47;11.47;;;;;;;14.13;62.20;96361.50;5094637;28;20480;-76
2022/10/17 06:31:51;;;;;;;14.60;12.33;;;;;;;14.07;62.68;96356.69;5041853;28;20430;-76
2022/10/17 06:34:18;;;;;;;16.77;12.10;;;;;;;14.05;63.69;96370.00;5094188;28;20483;-76
2022/10/17 06:36:44;;;;;;;15.17;11.40;;;;;;;13.79;64.39;96363.19;5093862;28;20842;-76
2022/10/17 06:39:13;;;;;;;18.47;12.03;;;;;;;13.78;65.07;96372.88;5041733;28;20451;-77
2022/10/17 06:41:40;;;;;;;18.77;13.00;;;;;;;13.89;64.92;96366.84;5094017;28;20922;-77
2022/10/17 06:44:10;;;;;;;12.67;10.77;;;;;;;14.05;64.07;96371.81;5093736;28;20492;-77
2022/10/17 06:46:39;;;;;;;17.60;12.00;;;;;;;14.17;63.62;96363.81;5093623;28;20442;-77
2022/10/17 06:49:06;;;;;;;16.33;11.73;;;;;;;14.21;63.15;96370.53;5093740;28;20447;-77
2022/10/17 06:51:36;;;;;;;16.77;10.93;;;;;;;14.29;62.77;96362.03;5094138;28;20440;-77
2022/10/17 06:54:03;;;;;;;16.13;10.57;;;;;;;14.35;63.13;96368.66;5093859;28;20448;-77
2022/10/17 06:56:29;;;;;;;12.20;10.90;;;;;;;14.41;62.03;96368.16;5094119;28;20447;-76
2022/10/17 06:58:56;;;;;;;21.67;11.20;;;;;;;14.43;63.25;96363.63;5041373;28;20460;-77
2022/10/17 07:01:23;;;;;;;17.43;11.27;;;;;;;14.37;62.45;96358.81;5093735;28;20443;-77
2022/10/17 07:03:51;;;;;;;15.77;10.97;;;;;;;14.46;63.05;96360.78;5057361;28;20509;-77
2022/10/17 07:06:18;;;;;;;14.33;11.03;;;;;;;14.52;62.01;96360.31;5093082;28;20497;-77
2022/10/17 07:08:45;;;;;;;24.73;11.90;;;;;;;14.69;62.18;96365.13;5093494;28;20954;-77
2022/10/17 07:11:15;;;;;;;15.97;11.90;;;;;;;14.52;61.59;96370.88;5093687;28;20924;-77
2022/10/17 07:13:42;;;;;;;17.17;11.90;;;;;;;14.52;62.38;96369.06;5093958;28;20497;-77
2022/10/17 07:16:10;;;;;;;20.43;12.40;;;;;;;14.59;62.85;96373.88;5093707;28;20487;-77
2022/10/17 07:18:36;;;;;;;12.50;11.17;;;;;;;14.35;63.04;96376.56;5093682;28;20440;-77
2022/10/17 07:21:05;;;;;;;112.90;69.40;;;;;;;14.08;65.47;96367.13;5093322;28;20504;-76
2022/10/17 07:23:35;;;;;;;389.00;267.50;;;;;;;14.25;70.43;96371.16;5093574;28;20448;-77
2022/10/17 07:26:05;;;;;;;119.27;76.70;;;;;;;15.41;68.44;96365.56;5093234;28;20583;-77
2022/10/17 07:28:32;;;;;;;33.60;22.40;;;;;;;15.67;63.70;96363.50;5093487;28;20543;-77
2022/10/17 07:31:04;;;;;;;22.30;15.63;;;;;;;16.01;63.90;96361.56;5093245;28;20447;-77
2022/10/17 07:33:30;;;;;;;18.60;12.23;;;;;;;16.94;63.73;96371.38;5093760;28;20459;-77
2022/10/17 07:35:58;;;;;;;15.93;11.10;;;;;;;17.76;59.86;96369.41;5093951;28;20505;-77
2022/10/17 07:38:27;;;;;;;17.73;12.80;;;;;;;18.52;54.65;96380.19;5093742;28;20454;-78
2022/10/17 07:40:54;;;;;;;13.70;10.50;;;;;;;19.30;52.75;96383.47;5093637;28;20447;-78
2022/10/17 07:43:21;;;;;;;14.70;12.80;;;;;;;19.75;50.21;96373.72;5093956;28;20440;-77
2022/10/17 07:45:48;;;;;;;27.33;18.80;;;;;;;19.45;47.82;96376.66;5093745;28;20451;-78
2022/10/17 07:48:15;;;;;;;26.87;16.90;;;;;;;18.96;49.57;96384.00;5093618;28;20443;-77
2022/10/17 07:50:41;;;;;;;35.83;22.40;;;;;;;19.05;51.96;96369.81;5093376;28;20456;-77
2022/10/17 07:53:08;;;;;;;43.97;24.60;;;;;;;18.65;52.65;96374.56;5093869;28;20853;-77
2022/10/17 07:55:38;;;;;;;40.53;23.67;;;;;;;18.68;55.17;96375.13;5092961;28;20491;-77
2022/10/17 07:58:05;;;;;;;52.53;23.70;;;;;;;19.09;54.25;96371.25;5093417;28;20451;-78
2022/10/17 08:00:32;;;;;;;40.03;23.47;;;;;;;19.31;51.53;96374.47;5093742;28;20444;-77
2022/10/17 08:02:59;;;;;;;98.60;51.33;;;;;;;19.22;51.43;96373.56;5093367;28;20443;-77
2022/10/17 08:05:26;;;;;;;239.43;147.43;;;;;;;19.42;51.45;96366.31;5093463;28;20436;-78
2022/10/17 08:07:53;;;;;;;138.80;77.53;;;;;;;19.66;52.42;96357.78;5093267;28;20440;-78
2022/10/17 08:10:20;;;;;;;61.50;36.13;;;;;;;19.82;48.72;96360.63;5093321;28;20573;-77
2022/10/17 08:12:48;;;;;;;107.27;49.57;;;;;;;19.73;48.79;96359.72;5093571;28;20527;-77
2022/10/17 08:15:15;;;;;;;33.30;19.03;;;;;;;19.28;47.84;96359.66;5092863;28;20824;-78
2022/10/17 08:17:42;;;;;;;63.73;29.37;;;;;;;19.35;49.96;96359.88;5093602;28;20446;-77
2022/10/17 08:20:10;;;;;;;24.40;14.87;;;;;;;19.33;48.27;96356.53;5093089;28;20758;-78
2022/10/17 08:22:37;;;;;;;46.20;24.97;;;;;;;18.94;49.07;96351.41;5057834;28;20440;-77
2022/10/17 08:25:04;;;;;;;199.50;92.80;;;;;;;18.76;52.06;96358.44;5092900;28;21116;-78
2022/10/17 08:27:33;;;;;;;151.47;81.93;;;;;;;19.27;51.59;96350.00;5093425;28;20516;-77
2022/10/17 08:30:01;;;;;;;26.03;15.30;;;;;;;19.48;47.61;96345.25;5093381;28;20448;-78
2022/10/17 08:32:29;;;;;;;50.23;24.23;;;;;;;19.83;49.72;96348.16;5092976;28;20478;-78
2022/10/17 08:34:56;;;;;;;25.83;19.70;;;;;;;20.51;50.33;96353.75;5092933;28;20519;-78
2022/10/17 08:37:23;;;;;;;30.40;14.93;;;;;;;20.76;48.45;96347.59;5093207;28;20490;-77
2022/10/17 08:39:50;;;;;;;16.10;11.90;;;;;;;20.93;47.33;96348.56;5093318;28;20448;-77
2022/10/17 08:42:35;;;;;;;16.10;11.43;;;;;;;20.89;45.21;96342.69;5092854;28;20821;-78
2022/10/17 08:45:14;;;;;;;18.80;12.27;;;;;;;20.66;44.27;96349.56;5093373;28;20440;-78
2022/10/17 08:47:45;;;;;;;13.80;8.80;;;;;;;20.81;44.37;96345.28;5073767;28;20440;-79
2022/10/17 08:50:17;;;;;;;16.97;10.23;;;;;;;20.54;48.21;96348.97;5092837;28;20447;-79
2022/10/17 08:52:49;;;;;;;18.13;11.00;;;;;;;20.68;45.10;96351.06;5092626;28;20484;-77
2022/10/17 08:55:18;;;;;;;13.37;9.40;;;;;;;20.20;43.66;96343.50;5092395;28;20549;-77
2022/10/17 08:57:44;;;;;;;21.90;12.17;;;;;;;19.77;44.78;96342.44;5092458;28;20793;-77
2022/10/17 09:00:20;;;;;;;19.10;12.10;;;;;;;19.58;45.01;96350.53;5092165;28;20493;-77
2022/10/17 09:03:02;;;;;;;17.73;10.90;;;;;;;19.38;46.54;96354.28;5092301;28;20443;-77
2022/10/17 09:05:37;;;;;;;11.30;9.37;;;;;;;19.17;44.88;96346.53;5092366;28;20809;-77
2022/10/17 09:08:17;;;;;;;12.60;8.60;;;;;;;18.98;43.98;96349.28;5092000;28;20447;-77
2022/10/17 09:10:55;;;;;;;10.00;8.47;;;;;;;18.56;43.00;96358.47;5059895;28;20431;-78
2022/10/17 09:13:32;;;;;;;11.00;7.57;;;;;;;18.63;41.93;96344.63;5095390;28;20444;-78
2022/10/17 09:16:23;;;;;;;23.53;8.13;;;;;;;18.63;42.85;96350.78;5095775;28;20552;-77
2022/10/17 09:19:01;;;;;;;8.40;7.60;;;;;;;18.63;43.48;96349.97;5095436;28;20725;-77
2022/10/17 09:21:37;;;;;;;9.70;8.00;;;;;;;18.79;43.63;96344.84;5095565;28;20857;-77
2022/10/17 09:24:11;;;;;;;13.03;8.40;;;;;;;18.95;44.34;96349.56;5095104;28;20865;-77
2022/10/17 09:26:40;;;;;;;11.50;8.97;;;;;;;18.94;43.71;96346.06;5042801;28;20937;-78
2022/10/17 09:29:18;;;;;;;11.93;8.10;;;;;;;18.87;43.68;96340.50;5095810;28;20452;-77
2022/10/17 09:31:53;;;;;;;11.33;8.40;;;;;;;18.82;43.19;96347.25;5111065;28;20443;-77
2022/10/17 09:34:21;;;;;;;15.53;6.63;;;;;;;18.68;43.98;96345.88;5113124;28;20446;-77
2022/10/17 09:36:48;;;;;;;12.20;8.97;;;;;;;18.75;43.97;96351.44;5115897;28;21022;-77
2022/10/17 09:39:18;;;;;;;9.17;7.63;;;;;;;18.78;44.35;96341.34;5115947;28;20447;-77
2022/10/17 09:41:50;;;;;;;11.37;8.00;;;;;;;18.58;43.06;96351.19;5115869;28;20495;-77
2022/10/17 09:44:22;;;;;;;9.33;7.70;;;;;;;18.37;43.29;96336.41;5115497;28;21182;-78
2022/10/17 09:47:19;;;;;;;10.87;7.40;;;;;;;18.21;43.23;96331.66;5115685;28;20438;-77
2022/10/17 09:49:47;;;;;;;10.20;6.40;;;;;;;18.22;43.17;96330.69;5114949;28;20875;-77
2022/10/17 09:52:17;;;;;;;9.90;6.57;;;;;;;18.13;43.09;96345.66;5079248;28;20462;-77
2022/10/17 09:54:46;;;;;;;10.00;6.57;;;;;;;18.01;42.93;96340.63;5115207;28;20454;-77
2022/10/17 09:57:15;;;;;;;8.23;6.47;;;;;;;18.10;43.07;96337.13;5062655;28;20486;-78
2022/10/17 09:59:44;;;;;;;10.03;7.00;;;;;;;18.19;43.31;96331.78;5115667;28;20447;-78
2022/10/17 10:02:24;;;;;;;9.73;6.37;;;;;;;18.10;42.35;96326.50;5115487;28;20435;-77
2022/10/17 10:04:56;;;;;;;9.87;6.47;;;;;;;18.20;41.81;96327.31;5114524;28;20450;-77
2022/10/17 10:07:23;;;;;;;6.10;5.23;;;;;;;18.25;40.96;96317.97;5114824;28;20501;-77
2022/10/17 10:09:51;;;;;;;6.23;5.13;;;;;;;18.22;40.71;96322.72;5114544;28;20496;-77
2022/10/17 10:12:20;;;;;;;11.03;6.47;;;;;;;18.07;40.14;96314.34;5114617;28;20443;-77
2022/10/17 10:14:47;;;;;;;4.87;4.37;;;;;;;18.22;39.93;96312.94;5114437;28;20438;-77
2022/10/17 10:17:40;;;;;;;5.53;5.03;;;;;;;18.44;39.40;96314.41;5114497;28;20544;-77
2022/10/17 10:20:26;;;;;;;4.57;3.90;;;;;;;18.60;41.01;96320.97;5113064;28;20867;-77
2022/10/17 10:23:08;;;;;;;4.40;4.00;;;;;;;18.47;40.12;96315.94;5114244;28;20447;-77
2022/10/17 10:25:36;;;;;;;4.77;4.10;;;;;;;18.38;38.21;96315.00;5114366;28;20442;-77
2022/10/17 10:28:09;;;;;;;7.10;4.10;;;;;;;18.47;37.86;96303.50;5114768;28;20531;-78
2022/10/17 10:30:37;;;;;;;6.50;3.80;;;;;;;18.51;38.12;96307.56;5114452;28;20443;-78
2022/10/17 10:33:05;;;;;;;5.57;4.33;;;;;;;18.52;38.71;96300.44;5114272;28;20793;-78
2022/10/17 10:35:34;;;;;;;5.30;4.17;;;;;;;18.60;38.52;96297.88;5100007;28;20483;-77
2022/10/17 10:38:03;;;;;;;5.30;4.67;;;;;;;18.77;38.56;96301.59;5093755;28;20440;-78
2022/10/17 10:40:36;;;;;;;5.37;4.60;;;;;;;18.88;38.80;96299.63;5093461;28;20447;-79
2022/10/17 10:43:03;;;;;;;5.30;3.80;;;;;;;18.96;37.93;96295.38;5093974;28;20556;-77
2022/10/17 10:45:41;;;;;;;6.80;5.23;;;;;;;19.08;38.97;96300.38;5094289;28;20444;-77
2022/10/17 10:48:20;;;;;;;5.50;4.57;;;;;;;19.17;37.99;96288.84;5093813;28;20995;-77
2022/10/17 10:50:51;;;;;;;5.70;4.13;;;;;;;19.22;37.42;96292.88;5093199;28;20540;-78
2022/10/17 10:53:31;;;;;;;4.53;4.13;;;;;;;19.27;37.25;96283.44;5093322;28;20795;-78
2022/10/17 10:56:04;;;;;;;4.00;3.70;;;;;;;19.29;36.29;96285.97;5093106;28;20492;-78
2022/10/17 10:58:40;;;;;;;9.07;5.07;;;;;;;19.31;37.09;96279.50;5093638;28;20440;-77
2022/10/17 11:01:14;;;;;;;5.43;4.13;;;;;;;19.32;37.51;96272.34;5093128;28;20539;-77
2022/10/17 11:03:54;;;;;;;5.77;4.20;;;;;;;19.37;37.83;96265.63;5093610;28;20466;-78
2022/10/17 11:06:26;;;;;;;8.90;4.60;;;;;;;19.37;37.90;96260.28;5093114;28;20790;-77
2022/10/17 11:09:05;;;;;;;5.80;4.97;;;;;;;19.29;36.97;96270.81;5093655;28;20444;-78
2022/10/17 11:11:37;;;;;;;9.30;5.20;;;;;;;19.24;37.43;96264.28;5093234;28;20451;-77
2022/10/17 11:14:11;;;;;;;8.40;4.40;;;;;;;19.30;37.08;96266.34;5092434;28;20447;-79
2022/10/17 11:16:44;;;;;;;7.60;4.37;;;;;;;19.37;38.03;96256.75;5092941;28;20494;-78
2022/10/17 11:19:20;;;;;;;5.90;3.80;;;;;;;19.44;37.50;96249.88;5092928;28;20489;-78
2022/10/17 11:21:54;;;;;;;6.50;4.13;;;;;;;19.52;37.06;96255.25;5093168;28;20444;-77
2022/10/17 11:24:25;;;;;;;4.97;4.10;;;;;;;19.56;37.03;96248.66;5092660;28;20435;-77
2022/10/17 11:26:57;;;;;;;6.33;4.90;;;;;;;19.65;37.20;96247.75;5092603;28;20448;-77
2022/10/17 11:29:29;;;;;;;6.27;3.87;;;;;;;19.71;36.44;96249.00;5093180;28;20516;-77
2022/10/17 11:32:00;;;;;;;5.73;4.23;;;;;;;19.78;37.25;96237.56;5092268;28;20497;-77
2022/10/17 11:34:38;;;;;;;5.30;4.60;;;;;;;19.81;36.36;96244.41;5092368;28;20463;-78
2022/10/17 11:37:12;;;;;;;6.60;4.40;;;;;;;19.81;36.30;96236.41;5092928;28;20509;-76
2022/10/17 11:39:47;;;;;;;7.23;4.67;;;;;;;19.80;36.26;96237.41;5058705;28;20432;-77
2022/10/17 11:42:17;;;;;;;6.63;3.70;;;;;;;19.84;36.99;96235.25;5093304;28;20536;-77